Time;durP1;ratioP1;P1;durP2;ratioP2;P2;SDS_P1;SDS_P2;PMS_P1;PMS_P2;Temp;Humidity;BMP_temperature;BMP_pressure;BME280_temperature;BME280_humidity;BME280_pressure;Samples;Min_cycle;Max_cycle;Signal;HPM_P1;HPM_P2
2021/07/28 00:01:50;;;;;;;9.73;8.32;;;;;;;;;;4992429;28;20125;-51
2021/07/28 00:04:17;;;;;;;8.73;7.75;;;;;;;;;;4992326;28;20427;-53
2021/07/28 00:06:44;;;;;;;8.82;7.82;;;;;;;;;;4992237;28;20046;-50
2021/07/28 00:09:11;;;;;;;12.00;7.88;;;;;;;;;;4991387;28;20194;-56
2021/07/28 00:11:38;;;;;;;9.25;8.35;;;;;;;;;;4992079;28;20081;-53
2021/07/28 00:14:05;;;;;;;9.50;7.82;;;;;;;;;;4992065;28;20039;-45
2021/07/28 00:16:32;;;;;;;8.35;6.03;;;;;;;;;;4992313;28;20046;-45
2021/07/28 00:19:09;;;;;;;8.15;7.07;;;;;;;;;;4991207;28;20038;-48
2021/07/28 00:24:21;;;;;;;8.13;6.78;;;;;;;;;;4992566;28;20050;-47
2021/07/28 00:26:48;;;;;;;8.02;6.10;;;;;;;;;;4993340;28;20043;-47
2021/07/28 00:29:15;;;;;;;7.55;6.25;;;;;;;;;;4995358;28;20109;-48
2021/07/28 00:31:42;;;;;;;9.43;7.45;;;;;;;;;;4995860;28;20042;-45
2021/07/28 00:34:08;;;;;;;7.65;6.40;;;;;;;;;;4995915;28;20047;-43
2021/07/28 00:36:35;;;;;;;6.93;5.63;;;;;;;;;;4996101;28;20427;-48
2021/07/28 00:39:02;;;;;;;7.65;5.97;;;;;;;;;;4995229;28;20071;-44
2021/07/28 00:41:29;;;;;;;6.30;5.13;;;;;;;;;;4995991;28;20137;-46
2021/07/28 00:43:59;;;;;;;7.13;5.43;;;;;;;;;;4995747;28;20059;-46
2021/07/28 00:46:26;;;;;;;5.70;4.35;;;;;;;;;;4997403;28;20525;-46
2021/07/28 00:48:53;;;;;;;6.47;4.60;;;;;;;;;;5014704;28;20042;-45
2021/07/28 00:51:19;;;;;;;6.00;4.88;;;;;;;;;;5015269;28;20033;-46
2021/07/28 00:53:46;;;;;;;5.85;4.53;;;;;;;;;;5014611;28;20042;-44
2021/07/28 00:56:13;;;;;;;6.30;5.00;;;;;;;;;;4996258;28;20408;-44
2021/07/28 00:58:40;;;;;;;9.48;5.53;;;;;;;;;;4994956;28;20041;-43
2021/07/28 01:01:07;;;;;;;8.23;5.60;;;;;;;;;;4995289;28;20084;-46
2021/07/28 01:03:34;;;;;;;7.28;5.70;;;;;;;;;;4995451;28;20052;-44
2021/07/28 01:06:02;;;;;;;6.70;5.20;;;;;;;;;;4995468;28;20572;-44
2021/07/28 01:08:29;;;;;;;8.05;5.63;;;;;;;;;;4994670;28;20065;-46
2021/07/28 01:10:57;;;;;;;8.05;5.70;;;;;;;;;;4995307;28;20046;-43
2021/07/28 01:13:28;;;;;;;7.88;5.60;;;;;;;;;;4995343;28;20046;-45
2021/07/28 01:15:59;;;;;;;7.45;5.32;;;;;;;;;;4994156;28;20043;-49
2021/07/28 01:18:26;;;;;;;7.45;5.43;;;;;;;;;;4994537;28;20047;-44
2021/07/28 01:20:53;;;;;;;8.00;5.07;;;;;;;;;;4995145;28;20042;-44
2021/07/28 01:23:20;;;;;;;9.40;5.75;;;;;;;;;;4995103;28;20491;-44
2021/07/28 01:25:48;;;;;;;6.85;4.97;;;;;;;;;;4994728;28;20053;-47
2021/07/28 01:28:15;;;;;;;6.07;5.10;;;;;;;;;;4993408;28;20405;-43
2021/07/28 01:30:42;;;;;;;5.60;4.88;;;;;;;;;;4994472;28;20042;-42
2021/07/28 01:33:09;;;;;;;8.70;5.55;;;;;;;;;;4993533;28;20174;-45
2021/07/28 01:35:37;;;;;;;6.38;5.28;;;;;;;;;;4995312;28;20049;-47
2021/07/28 01:38:07;;;;;;;6.68;5.40;;;;;;;;;;4993540;28;20125;-45
2021/07/28 01:40:39;;;;;;;8.00;5.30;;;;;;;;;;4994927;28;20128;-49
2021/07/28 01:43:06;;;;;;;;;;;;;;;;;;4995062;28;20057;-44
2021/07/28 01:45:33;;;;;;;5.90;4.70;;;;;;;;;;4994808;28;19922;-42
2021/07/28 01:47:59;;;;;;;7.05;4.88;;;;;;;;;;4994006;28;20046;-52
2021/07/28 01:50:26;;;;;;;10.07;5.07;;;;;;;;;;4994631;28;20074;-45
2021/07/28 01:52:53;;;;;;;9.07;5.15;;;;;;;;;;4994720;28;20052;-47
2021/07/28 01:55:20;;;;;;;6.68;5.28;;;;;;;;;;4996626;28;20045;-43
2021/07/28 01:57:56;;;;;;;7.93;6.22;;;;;;;;;;4994476;28;20046;-44
2021/07/28 02:00:23;;;;;;;6.72;5.53;;;;;;;;;;4993815;28;20074;-43
2021/07/28 02:02:50;;;;;;;5.70;5.00;;;;;;;;;;4993160;28;20129;-44
2021/07/28 02:05:17;;;;;;;6.65;5.38;;;;;;;;;;4977179;28;20077;-46
2021/07/28 02:07:44;;;;;;;7.28;5.13;;;;;;;;;;4994472;28;20474;-44
2021/07/28 02:10:10;;;;;;;7.50;5.50;;;;;;;;;;4994082;28;20341;-49
2021/07/28 02:12:37;;;;;;;8.80;6.13;;;;;;;;;;4994259;28;20073;-44
2021/07/28 02:15:04;;;;;;;7.18;5.50;;;;;;;;;;4994342;28;20129;-43
2021/07/28 02:17:31;;;;;;;7.57;6.25;;;;;;;;;;4994462;28;20535;-46
2021/07/28 02:19:58;;;;;;;6.50;5.30;;;;;;;;;;4993534;28;20038;-45
2021/07/28 02:22:24;;;;;;;7.18;5.57;;;;;;;;;;4994007;28;20419;-44
2021/07/28 02:24:51;;;;;;;7.22;5.63;;;;;;;;;;4994280;28;20078;-50
2021/07/28 02:27:18;;;;;;;5.88;4.97;;;;;;;;;;4993847;28;20051;-45
2021/07/28 02:29:44;;;;;;;6.38;5.32;;;;;;;;;;4995056;28;20042;-46
2021/07/28 02:32:11;;;;;;;6.55;5.25;;;;;;;;;;4993664;28;20073;-49
2021/07/28 02:34:38;;;;;;;6.93;5.30;;;;;;;;;;4994011;28;20050;-44
2021/07/28 02:37:05;;;;;;;6.03;4.95;;;;;;;;;;4994041;28;20057;-44
2021/07/28 02:39:31;;;;;;;6.63;5.70;;;;;;;;;;4993349;28;20077;-50
2021/07/28 02:41:59;;;;;;;8.25;5.45;;;;;;;;;;4992524;28;20060;-45
2021/07/28 02:44:26;;;;;;;6.85;5.18;;;;;;;;;;4993969;28;20523;-44
2021/07/28 02:46:53;;;;;;;6.65;4.93;;;;;;;;;;4992696;28;20122;-44
2021/07/28 02:49:20;;;;;;;7.22;4.97;;;;;;;;;;4991995;28;20325;-43
2021/07/28 02:51:46;;;;;;;7.93;5.38;;;;;;;;;;4993587;28;20554;-46
2021/07/28 02:54:13;;;;;;;5.28;4.28;;;;;;;;;;4993454;28;20039;-45
2021/07/28 02:56:40;;;;;;;5.75;4.40;;;;;;;;;;4993314;28;20046;-49
2021/07/28 02:59:07;;;;;;;6.20;5.20;;;;;;;;;;4992649;28;20039;-45
2021/07/28 03:01:34;;;;;;;6.07;4.32;;;;;;;;;;4993173;28;20047;-47
2021/07/28 03:04:01;;;;;;;6.05;4.47;;;;;;;;;;4975940;28;20050;-48
2021/07/28 03:06:27;;;;;;;5.13;3.90;;;;;;;;;;4993213;28;20057;-47
2021/07/28 03:08:54;;;;;;;6.70;4.28;;;;;;;;;;4992165;28;20124;-44
2021/07/28 03:11:21;;;;;;;4.88;3.67;;;;;;;;;;4993240;28;20124;-46
2021/07/28 03:13:48;;;;;;;6.90;4.10;;;;;;;;;;4993088;28;20034;-45
2021/07/28 03:16:15;;;;;;;5.63;3.70;;;;;;;;;;4992820;28;20068;-45
2021/07/28 03:18:42;;;;;;;4.22;3.55;;;;;;;;;;4991120;28;20047;-46
2021/07/28 03:21:08;;;;;;;6.88;4.18;;;;;;;;;;4991902;28;20050;-48
2021/07/28 03:23:35;;;;;;;5.57;4.47;;;;;;;;;;4991786;28;20074;-49
2021/07/28 03:26:02;;;;;;;5.50;3.83;;;;;;;;;;5003216;28;20145;-46
2021/07/28 03:28:29;;;;;;;5.70;3.85;;;;;;;;;;5011980;28;20148;-44
2021/07/28 03:30:56;;;;;;;4.65;3.55;;;;;;;;;;4995652;28;20064;-46
2021/07/28 03:33:22;;;;;;;6.40;4.22;;;;;;;;;;4992800;28;20145;-44
2021/07/28 03:35:49;;;;;;;5.70;4.38;;;;;;;;;;4992695;28;20440;-44
2021/07/28 03:38:16;;;;;;;5.20;4.13;;;;;;;;;;4992247;28;20089;-45
2021/07/28 03:40:43;;;;;;;5.60;4.38;;;;;;;;;;4992627;28;20043;-44
2021/07/28 03:43:10;;;;;;;5.60;4.65;;;;;;;;;;4992401;28;20070;-48
2021/07/28 03:45:37;;;;;;;8.40;4.85;;;;;;;;;;4992575;28;20049;-46
2021/07/28 03:48:04;;;;;;;6.28;5.05;;;;;;;;;;4992058;28;20395;-42
2021/07/28 03:50:31;;;;;;;8.00;4.80;;;;;;;;;;4992288;28;20121;-43
2021/07/28 03:52:59;;;;;;;7.13;4.75;;;;;;;;;;4992250;28;20043;-45
2021/07/28 03:55:26;;;;;;;7.78;5.80;;;;;;;;;;4992413;28;20043;-43
2021/07/28 03:57:53;;;;;;;6.72;5.22;;;;;;;;;;5004374;28;20462;-53
2021/07/28 04:00:20;;;;;;;7.75;6.07;;;;;;;;;;5000754;28;20475;-43
2021/07/28 04:02:47;;;;;;;11.10;5.47;;;;;;;;;;5011850;28;20073;-46
2021/07/28 04:05:15;;;;;;;8.68;5.47;;;;;;;;;;5011773;28;20050;-45
2021/07/28 04:07:42;;;;;;;8.45;6.20;;;;;;;;;;5009995;28;20096;-44
2021/07/28 04:10:09;;;;;;;8.07;5.25;;;;;;;;;;4991536;28;20129;-46
2021/07/28 04:12:36;;;;;;;8.55;5.90;;;;;;;;;;4992102;28;20038;-45
2021/07/28 04:15:03;;;;;;;7.68;6.00;;;;;;;;;;4992118;28;20111;-43
2021/07/28 04:17:29;;;;;;;9.05;6.70;;;;;;;;;;4991930;28;20559;-44
2021/07/28 04:19:59;;;;;;;6.63;5.53;;;;;;;;;;4990290;28;20389;-48
2021/07/28 04:22:26;;;;;;;9.63;6.15;;;;;;;;;;4992047;28;20065;-47
2021/07/28 04:24:53;;;;;;;5.82;5.22;;;;;;;;;;4991888;28;20046;-48
2021/07/28 04:27:20;;;;;;;7.05;4.75;;;;;;;;;;4991891;28;20500;-44
2021/07/28 04:29:47;;;;;;;8.38;5.35;;;;;;;;;;4990783;28;20058;-46
2021/07/28 04:32:14;;;;;;;8.30;5.78;;;;;;;;;;4991869;28;20050;-47
2021/07/28 04:34:41;;;;;;;7.97;5.35;;;;;;;;;;4991958;28;20047;-48
2021/07/28 04:37:07;;;;;;;7.95;5.65;;;;;;;;;;4991962;28;20097;-43
2021/07/28 04:39:34;;;;;;;7.10;5.88;;;;;;;;;;4991281;28;20042;-46
2021/07/28 04:42:01;;;;;;;8.10;5.97;;;;;;;;;;4990356;28;20058;-43
2021/07/28 04:44:28;;;;;;;7.38;6.10;;;;;;;;;;4991934;28;20069;-43
2021/07/28 04:46:56;;;;;;;9.07;5.93;;;;;;;;;;4991866;28;20105;-46
2021/07/28 04:49:22;;;;;;;6.70;5.85;;;;;;;;;;4989996;28;20084;-47
2021/07/28 04:51:49;;;;;;;10.35;6.28;;;;;;;;;;4991670;28;20061;-45
2021/07/28 04:54:16;;;;;;;7.82;6.35;;;;;;;;;;4991931;28;20070;-45
2021/07/28 04:56:43;;;;;;;9.15;5.75;;;;;;;;;;4992550;28;20049;-44
2021/07/28 04:59:10;;;;;;;9.23;5.38;;;;;;;;;;4990833;28;20066;-44
2021/07/28 05:01:37;;;;;;;7.18;5.90;;;;;;;;;;4990335;28;20081;-48
2021/07/28 05:04:04;;;;;;;7.18;4.95;;;;;;;;;;4991896;28;20117;-44
2021/07/28 05:06:32;;;;;;;6.65;5.15;;;;;;;;;;4991934;28;20077;-49
2021/07/28 05:08:59;;;;;;;6.95;4.63;;;;;;;;;;4990893;28;20066;-46
2021/07/28 05:11:27;;;;;;;6.70;4.38;;;;;;;;;;4991666;28;20074;-48
2021/07/28 05:13:54;;;;;;;6.53;4.57;;;;;;;;;;4994632;28;20043;-47
2021/07/28 05:16:21;;;;;;;6.18;4.53;;;;;;;;;;4995502;28;20073;-44
2021/07/28 05:18:47;;;;;;;6.32;4.53;;;;;;;;;;4993197;28;20042;-47
2021/07/28 05:21:14;;;;;;;5.50;4.30;;;;;;;;;;4995315;28;20426;-46
2021/07/28 05:23:43;;;;;;;6.88;4.55;;;;;;;;;;4995193;28;20429;-46
2021/07/28 05:26:09;;;;;;;5.57;4.18;;;;;;;;;;4995164;28;20038;-49
2021/07/28 05:28:36;;;;;;;6.07;4.40;;;;;;;;;;4993970;28;20395;-46
2021/07/28 05:31:03;;;;;;;6.18;4.57;;;;;;;;;;4994891;28;20120;-44
2021/07/28 05:33:30;;;;;;;5.75;4.53;;;;;;;;;;4994901;28;20045;-47
2021/07/28 05:36:00;;;;;;;6.93;4.32;;;;;;;;;;4995206;28;20073;-43
2021/07/28 05:38:27;;;;;;;8.05;4.90;;;;;;;;;;4992716;28;20045;-44
2021/07/28 05:40:55;;;;;;;6.82;4.47;;;;;;;;;;4994858;28;20054;-46
2021/07/28 05:43:25;;;;;;;7.80;4.45;;;;;;;;;;4995143;28;20042;-50
2021/07/28 05:45:52;;;;;;;7.30;4.78;;;;;;;;;;4994679;28;20073;-50
2021/07/28 05:48:19;;;;;;;6.45;5.10;;;;;;;;;;4994089;28;20440;-50
2021/07/28 05:50:46;;;;;;;6.65;4.75;;;;;;;;;;4994770;28;20065;-53
2021/07/28 05:53:13;;;;;;;7.38;5.00;;;;;;;;;;4993259;28;20093;-49
2021/07/28 05:55:40;;;;;;;6.10;4.80;;;;;;;;;;4994214;28;20496;-52
2021/07/28 05:58:06;;;;;;;7.70;4.90;;;;;;;;;;4992711;28;20038;-49
2021/07/28 06:00:33;;;;;;;8.85;4.50;;;;;;;;;;4994536;28;20125;-51
2021/07/28 06:03:00;;;;;;;7.55;5.03;;;;;;;;;;4994550;28;20054;-49
2021/07/28 06:05:27;;;;;;;6.43;5.18;;;;;;;;;;4994774;28;20408;-50
2021/07/28 06:07:54;;;;;;;7.50;5.43;;;;;;;;;;4994131;28;20046;-51
2021/07/28 06:10:21;;;;;;;8.20;4.80;;;;;;;;;;4993696;28;20078;-50
2021/07/28 06:12:48;;;;;;;10.85;6.80;;;;;;;;;;4994297;28;20563;-52
2021/07/28 06:15:15;;;;;;;7.70;5.20;;;;;;;;;;4994377;28;20073;-53
2021/07/28 06:17:41;;;;;;;9.43;5.90;;;;;;;;;;4994029;28;20046;-51
2021/07/28 06:20:08;;;;;;;9.35;5.22;;;;;;;;;;4993414;28;20500;-51
2021/07/28 06:22:35;;;;;;;7.63;5.38;;;;;;;;;;4992769;28;20141;-50
2021/07/28 06:25:02;;;;;;;7.65;5.35;;;;;;;;;;4994128;28;20130;-53
2021/07/28 06:27:29;;;;;;;6.53;5.30;;;;;;;;;;4993880;28;20565;-54
2021/07/28 06:29:57;;;;;;;6.75;5.05;;;;;;;;;;4992782;28;20038;-54
2021/07/28 06:32:24;;;;;;;7.55;5.70;;;;;;;;;;4993992;28;20069;-54
2021/07/28 06:34:51;;;;;;;7.68;5.55;;;;;;;;;;4994022;28;20145;-53
2021/07/28 06:37:17;;;;;;;6.53;5.32;;;;;;;;;;4992689;28;20046;-54
2021/07/28 06:39:44;;;;;;;7.43;4.85;;;;;;;;;;4997328;28;20042;-50
2021/07/28 06:42:11;;;;;;;7.40;5.32;;;;;;;;;;4993784;28;20053;-54
2021/07/28 06:44:38;;;;;;;7.18;5.30;;;;;;;;;;4993827;28;20457;-52
2021/07/28 06:47:05;;;;;;;7.22;5.07;;;;;;;;;;4993692;28;20172;-50
2021/07/28 06:49:31;;;;;;;6.45;4.65;;;;;;;;;;4992994;28;20142;-54
2021/07/28 06:51:59;;;;;;;6.72;4.85;;;;;;;;;;4993494;28;20117;-51
2021/07/28 06:54:26;;;;;;;7.28;5.22;;;;;;;;;;4993505;28;20468;-53
2021/07/28 06:56:53;;;;;;;5.70;4.53;;;;;;;;;;4993274;28;20137;-50
2021/07/28 06:59:20;;;;;;;6.57;4.53;;;;;;;;;;4992951;28;20058;-54
2021/07/28 07:01:47;;;;;;;7.18;4.47;;;;;;;;;;4993459;28;20105;-53
2021/07/28 07:04:14;;;;;;;8.00;4.88;;;;;;;;;;4993235;28;20508;-50
2021/07/28 07:06:41;;;;;;;6.60;4.90;;;;;;;;;;4993391;28;20050;-54
2021/07/28 07:09:07;;;;;;;5.72;4.50;;;;;;;;;;4992540;28;20058;-48
2021/07/28 07:11:34;;;;;;;9.52;5.25;;;;;;;;;;4993363;28;20042;-53
2021/07/28 07:14:01;;;;;;;7.97;5.45;;;;;;;;;;4993248;28;20133;-53
2021/07/28 07:16:28;;;;;;;7.00;5.05;;;;;;;;;;4993013;28;20046;-51
2021/07/28 07:18:55;;;;;;;7.40;5.60;;;;;;;;;;4992400;28;20066;-52
2021/07/28 07:21:21;;;;;;;6.68;5.25;;;;;;;;;;4993105;28;20062;-52
2021/07/28 07:23:49;;;;;;;6.78;5.63;;;;;;;;;;4993028;28;20050;-46
2021/07/28 07:26:16;;;;;;;9.02;5.60;;;;;;;;;;4993290;28;20499;-47
2021/07/28 07:28:43;;;;;;;8.85;5.97;;;;;;;;;;4991103;28;20058;-45
2021/07/28 07:31:10;;;;;;;7.30;6.38;;;;;;;;;;4992799;28;20046;-44
2021/07/28 07:33:38;;;;;;;9.35;6.13;;;;;;;;;;4993135;28;20440;-47
2021/07/28 07:36:10;;;;;;;8.70;6.57;;;;;;;;;;4992316;28;20097;-45
2021/07/28 07:38:38;;;;;;;7.85;5.82;;;;;;;;;;4992023;28;20129;-45
2021/07/28 07:41:05;;;;;;;11.18;6.35;;;;;;;;;;4991494;28;20056;-49
2021/07/28 07:43:32;;;;;;;9.23;6.75;;;;;;;;;;4992638;28;20166;-54
2021/07/28 07:45:59;;;;;;;8.98;7.22;;;;;;;;;;4992693;28;20042;-53
2021/07/28 07:48:26;;;;;;;9.95;7.05;;;;;;;;;;4991679;28;20045;-54
2021/07/28 07:50:53;;;;;;;13.30;7.43;;;;;;;;;;4992701;28;20061;-50
2021/07/28 07:53:20;;;;;;;8.00;6.35;;;;;;;;;;4992505;28;20130;-47
2021/07/28 07:55:47;;;;;;;9.32;7.32;;;;;;;;;;4992523;28;20042;-52
2021/07/28 07:58:13;;;;;;;8.93;7.30;;;;;;;;;;4991793;28;20050;-50
2021/07/28 08:00:40;;;;;;;9.40;7.78;;;;;;;;;;4992122;28;20138;-52
2021/07/28 08:03:07;;;;;;;8.55;7.22;;;;;;;;;;4992398;28;20096;-47
2021/07/28 08:05:34;;;;;;;12.13;7.07;;;;;;;;;;4992564;28;20050;-52
2021/07/28 08:08:01;;;;;;;9.95;7.45;;;;;;;;;;4991637;28;20113;-54
2021/07/28 08:10:28;;;;;;;10.55;7.97;;;;;;;;;;4991089;28;20566;-52
2021/07/28 08:12:55;;;;;;;10.85;7.82;;;;;;;;;;4992138;28;20065;-51
2021/07/28 08:15:22;;;;;;;11.25;8.90;;;;;;;;;;4992198;28;20138;-50
2021/07/28 08:17:48;;;;;;;10.35;8.40;;;;;;;;;;4998146;28;20034;-54
2021/07/28 08:20:15;;;;;;;12.27;8.63;;;;;;;;;;4991571;28;20073;-44
2021/07/28 08:22:42;;;;;;;11.48;8.25;;;;;;;;;;4992257;28;20393;-49
2021/07/28 08:25:09;;;;;;;15.13;9.20;;;;;;;;;;4991918;28;20042;-47
2021/07/28 08:27:36;;;;;;;10.23;8.55;;;;;;;;;;4992108;28;20078;-45
2021/07/28 08:30:03;;;;;;;9.45;8.38;;;;;;;;;;4991325;28;20570;-47
2021/07/28 08:32:30;;;;;;;12.82;9.02;;;;;;;;;;4992211;28;20547;-44
2021/07/28 08:35:16;;;;;;;10.73;8.70;;;;;;;;;;4991133;28;20050;-44
2021/07/28 08:37:43;;;;;;;11.65;10.20;;;;;;;;;;4992224;28;20116;-47
2021/07/28 08:40:12;;;;;;;12.02;8.85;;;;;;;;;;5003002;28;20042;-45
2021/07/28 08:42:40;;;;;;;12.18;9.65;;;;;;;;;;4992097;28;20062;-44
2021/07/28 08:45:07;;;;;;;12.70;8.80;;;;;;;;;;4992009;28;20093;-44
2021/07/28 08:47:37;;;;;;;11.40;9.73;;;;;;;;;;4992818;28;20128;-45
2021/07/28 08:50:04;;;;;;;13.63;9.63;;;;;;;;;;4995162;28;20076;-45
2021/07/28 08:52:34;;;;;;;12.70;9.70;;;;;;;;;;4995880;28;20550;-48
2021/07/28 08:55:02;;;;;;;12.18;9.55;;;;;;;;;;4995975;28;20047;-47
2021/07/28 08:57:31;;;;;;;12.02;10.00;;;;;;;;;;4995499;28;20052;-49
2021/07/28 08:59:58;;;;;;;14.27;10.30;;;;;;;;;;4994238;28;20456;-45
2021/07/28 09:02:25;;;;;;;15.60;10.27;;;;;;;;;;4995822;28;20042;-44
2021/07/28 09:04:53;;;;;;;14.50;11.05;;;;;;;;;;4995625;28;20108;-43
2021/07/28 09:07:23;;;;;;;15.15;11.95;;;;;;;;;;4995452;28;20073;-48
2021/07/28 09:09:58;;;;;;;14.57;12.50;;;;;;;;;;4994707;28;20049;-49
2021/07/28 09:12:33;;;;;;;16.02;12.95;;;;;;;;;;4994068;28;20053;-45
2021/07/28 09:15:05;;;;;;;17.27;12.90;;;;;;;;;;4995284;28;20070;-47
2021/07/28 09:17:35;;;;;;;18.50;13.27;;;;;;;;;;4995191;28;20492;-45
2021/07/28 09:20:03;;;;;;;15.35;12.48;;;;;;;;;;4994598;28;20046;-49
2021/07/28 09:22:39;;;;;;;15.20;12.73;;;;;;;;;;4993761;28;20077;-45
2021/07/28 09:25:10;;;;;;;16.98;12.32;;;;;;;;;;4995143;28;20098;-44
2021/07/28 09:27:38;;;;;;;17.20;13.98;;;;;;;;;;4994987;28;20050;-46
2021/07/28 09:30:05;;;;;;;16.60;13.50;;;;;;;;;;4994778;28;20089;-45
2021/07/28 09:32:34;;;;;;;15.70;13.27;;;;;;;;;;4994802;28;20130;-48
2021/07/28 09:35:01;;;;;;;17.30;13.68;;;;;;;;;;4995033;28;20129;-46
2021/07/28 09:37:37;;;;;;;18.08;14.60;;;;;;;;;;4994683;28;20088;-44
2021/07/28 09:40:04;;;;;;;17.63;14.35;;;;;;;;;;4994377;28;20061;-45
2021/07/28 09:42:31;;;;;;;20.45;14.93;;;;;;;;;;4994694;28;20404;-48
2021/07/28 09:44:59;;;;;;;20.75;15.07;;;;;;;;;;4994450;28;20063;-45
2021/07/28 09:47:26;;;;;;;19.02;13.95;;;;;;;;;;4994728;28;20046;-44
2021/07/28 09:50:02;;;;;;;18.58;15.05;;;;;;;;;;4994008;28;20053;-46
2021/07/28 09:52:33;;;;;;;17.63;13.65;;;;;;;;;;4994518;28;20041;-49
2021/07/28 09:55:19;;;;;;;19.17;15.52;;;;;;;;;;4994439;28;20097;-44
2021/07/28 09:57:46;;;;;;;17.30;14.20;;;;;;;;;;4994411;28;20415;-47
2021/07/28 10:00:13;;;;;;;16.38;13.00;;;;;;;;;;4993088;28;20038;-45
2021/07/28 10:03:01;;;;;;;15.65;12.70;;;;;;;;;;4992941;28;20128;-48
2021/07/28 10:05:33;;;;;;;16.92;13.18;;;;;;;;;;4993828;28;20050;-49
2021/07/28 10:08:02;;;;;;;21.52;17.23;;;;;;;;;;4992260;28;20050;-50
2021/07/28 10:10:30;;;;;;;16.35;14.60;;;;;;;;;;4976853;28;20527;-43
2021/07/28 10:12:58;;;;;;;17.70;15.23;;;;;;;;;;4994141;28;20042;-44
2021/07/28 10:15:26;;;;;;;20.52;16.30;;;;;;;;;;4993937;28;20508;-48
2021/07/28 10:17:54;;;;;;;12.98;11.50;;;;;;;;;;4993036;28;20093;-45
2021/07/28 10:20:22;;;;;;;12.70;11.18;;;;;;;;;;4993456;28;20042;-44
2021/07/28 10:22:50;;;;;;;14.68;10.43;;;;;;;;;;4994243;28;20050;-44
2021/07/28 10:25:18;;;;;;;13.90;9.45;;;;;;;;;;4994013;28;20452;-45
2021/07/28 10:27:49;;;;;;;11.25;9.55;;;;;;;;;;4993957;28;20073;-46
2021/07/28 10:30:19;;;;;;;10.10;8.23;;;;;;;;;;4999166;28;20053;-43
2021/07/28 10:32:45;;;;;;;10.90;8.23;;;;;;;;;;4992428;28;20074;-47
2021/07/28 10:35:19;;;;;;;10.65;9.07;;;;;;;;;;4993858;28;20116;-42
2021/07/28 10:37:46;;;;;;;10.30;8.93;;;;;;;;;;4993643;28;20038;-44
2021/07/28 10:40:31;;;;;;;12.60;8.23;;;;;;;;;;4993053;28;20484;-50
2021/07/28 10:43:01;;;;;;;9.77;6.72;;;;;;;;;;4993663;28;20047;-48
2021/07/28 10:45:46;;;;;;;6.85;5.63;;;;;;;;;;4993636;28;20093;-47
2021/07/28 10:48:33;;;;;;;6.43;4.60;;;;;;;;;;4992846;28;20651;-44
2021/07/28 10:51:00;;;;;;;9.55;5.43;;;;;;;;;;4992423;28;20073;-46
2021/07/28 10:53:45;;;;;;;9.00;6.00;;;;;;;;;;4993380;28;20130;-43
2021/07/28 10:56:12;;;;;;;9.20;6.10;;;;;;;;;;4993391;28;20129;-45
2021/07/28 10:58:38;;;;;;;8.10;6.38;;;;;;;;;;4993002;28;20050;-43
2021/07/28 11:01:05;;;;;;;6.97;5.85;;;;;;;;;;4991982;28;20043;-45
2021/07/28 11:03:35;;;;;;;8.18;6.00;;;;;;;;;;4993273;28;20077;-47
2021/07/28 11:06:19;;;;;;;9.13;6.90;;;;;;;;;;4993266;28;20052;-43
2021/07/28 11:08:46;;;;;;;7.78;5.90;;;;;;;;;;4992622;28;20552;-43
2021/07/28 11:11:19;;;;;;;7.75;5.45;;;;;;;;;;4992547;28;20046;-43
2021/07/28 11:13:47;;;;;;;7.13;5.93;;;;;;;;;;4993113;28;20101;-46
2021/07/28 11:16:15;;;;;;;7.65;5.53;;;;;;;;;;4993159;28;20053;-48
2021/07/28 11:18:48;;;;;;;7.18;5.57;;;;;;;;;;4992249;28;20089;-45
2021/07/28 11:21:21;;;;;;;9.50;6.10;;;;;;;;;;4993131;28;20050;-45
2021/07/28 11:23:51;;;;;;;8.20;5.20;;;;;;;;;;4992961;28;20499;-46
2021/07/28 11:26:21;;;;;;;8.18;6.00;;;;;;;;;;4992634;28;20145;-43
2021/07/28 11:28:49;;;;;;;6.10;5.50;;;;;;;;;;4992502;28;20069;-45
2021/07/28 11:31:22;;;;;;;7.30;5.05;;;;;;;;;;4992543;28;20097;-47
2021/07/28 11:33:49;;;;;;;8.85;6.45;;;;;;;;;;4992800;28;20138;-47
2021/07/28 11:36:16;;;;;;;8.40;6.05;;;;;;;;;;4992802;28;20088;-44
2021/07/28 11:38:43;;;;;;;8.65;6.18;;;;;;;;;;4992129;28;20042;-46
2021/07/28 11:41:10;;;;;;;10.07;5.93;;;;;;;;;;4993447;28;20031;-44
2021/07/28 11:43:39;;;;;;;6.60;5.32;;;;;;;;;;5021446;23;20055;-49
2021/07/28 11:46:09;;;;;;;8.35;6.13;;;;;;;;;;4991625;28;20121;-53
2021/07/28 11:48:37;;;;;;;7.55;5.82;;;;;;;;;;4991708;28;20052;-52
2021/07/28 11:51:05;;;;;;;7.13;5.85;;;;;;;;;;4991876;28;20044;-49
2021/07/28 11:53:33;;;;;;;12.20;5.47;;;;;;;;;;4991843;28;20066;-51
2021/07/28 11:56:20;;;;;;;7.10;5.35;;;;;;;;;;4978651;28;20061;-49
2021/07/28 11:58:48;;;;;;;5.97;5.03;;;;;;;;;;4971938;28;20039;-52
2021/07/28 12:01:34;;;;;;;7.32;4.75;;;;;;;;;;5003183;28;20039;-51
2021/07/28 12:04:04;;;;;;;7.78;5.15;;;;;;;;;;4972335;28;20046;-49
2021/07/28 12:06:38;;;;;;;7.97;4.70;;;;;;;;;;4972421;28;20130;-49
2021/07/28 12:09:09;;;;;;;7.47;4.60;;;;;;;;;;4984768;28;20046;-48
2021/07/28 12:11:49;;;;;;;8.23;4.85;;;;;;;;;;4992043;28;20093;-49
2021/07/28 12:14:21;;;;;;;6.22;4.30;;;;;;;;;;4991742;28;20050;-49
2021/07/28 12:16:48;;;;;;;6.28;4.50;;;;;;;;;;4991396;28;20060;-48
2021/07/28 12:19:21;;;;;;;7.03;4.78;;;;;;;;;;4991009;28;20125;-51
2021/07/28 12:21:59;;;;;;;5.72;4.35;;;;;;;;;;4994147;28;20076;-52
2021/07/28 12:24:34;;;;;;;6.13;4.78;;;;;;;;;;4998211;28;20153;-53
2021/07/28 12:27:19;;;;;;;6.30;4.70;;;;;;;;;;4983999;28;20504;-49
2021/07/28 12:30:04;;;;;;;7.68;5.18;;;;;;;;;;4984277;28;20074;-50
2021/07/28 12:32:38;;;;;;;6.13;5.07;;;;;;;;;;4998176;28;20125;-53
2021/07/28 12:35:27;;;;;;;5.78;5.18;;;;;;;;;;4998162;28;20563;-49
2021/07/28 12:38:03;;;;;;;8.35;5.55;;;;;;;;;;4991837;28;20470;-49
2021/07/28 12:40:31;;;;;;;7.47;5.68;;;;;;;;;;4998004;28;20523;-50
2021/07/28 12:42:58;;;;;;;7.13;5.30;;;;;;;;;;4997618;28;20162;-51
2021/07/28 12:45:25;;;;;;;6.22;5.10;;;;;;;;;;5010432;28;20042;-52
2021/07/28 12:47:52;;;;;;;6.53;4.88;;;;;;;;;;4978557;28;20126;-48
2021/07/28 12:50:19;;;;;;;5.65;4.55;;;;;;;;;;4976469;28;20137;-48
2021/07/28 12:52:46;;;;;;;6.05;5.22;;;;;;;;;;4978552;28;20043;-49
2021/07/28 12:55:12;;;;;;;5.20;4.20;;;;;;;;;;4982904;28;20483;-48
2021/07/28 12:57:39;;;;;;;7.13;5.07;;;;;;;;;;4997747;28;20054;-49
2021/07/28 13:00:06;;;;;;;5.30;4.60;;;;;;;;;;4996774;28;20536;-50
2021/07/28 13:02:33;;;;;;;5.63;4.82;;;;;;;;;;4997691;28;20125;-51
2021/07/28 13:05:02;;;;;;;6.25;4.10;;;;;;;;;;4996716;28;20484;-50
2021/07/28 13:07:44;;;;;;;6.25;4.45;;;;;;;;;;4997916;28;20058;-50
2021/07/28 13:10:11;;;;;;;6.47;5.27;;;;;;;;;;4996474;28;20077;-52
2021/07/28 13:12:37;;;;;;;5.50;4.40;;;;;;;;;;4997727;28;20355;-49
2021/07/28 13:15:05;;;;;;;5.35;4.47;;;;;;;;;;4997769;28;20400;-53
2021/07/28 13:17:31;;;;;;;7.13;4.10;;;;;;;;;;4997141;28;20070;-50
2021/07/28 13:19:59;;;;;;;6.10;4.78;;;;;;;;;;4996988;28;20082;-50
2021/07/28 13:22:26;;;;;;;5.55;4.30;;;;;;;;;;4997614;28;20046;-48
2021/07/28 13:24:53;;;;;;;7.03;4.55;;;;;;;;;;4997771;28;20047;-49
2021/07/28 13:27:20;;;;;;;6.40;4.45;;;;;;;;;;4997249;28;20046;-53
2021/07/28 13:29:47;;;;;;;5.20;4.40;;;;;;;;;;4996348;28;20102;-52
2021/07/28 13:32:14;;;;;;;6.82;4.13;;;;;;;;;;4997343;28;20077;-53
2021/07/28 13:34:41;;;;;;;5.32;4.28;;;;;;;;;;4993858;28;20145;-50
2021/07/28 13:37:09;;;;;;;5.60;4.35;;;;;;;;;;4994025;28;20070;-48
2021/07/28 13:39:37;;;;;;;6.57;4.50;;;;;;;;;;4993733;28;20081;-48
2021/07/28 13:42:03;;;;;;;6.00;4.28;;;;;;;;;;4994291;28;20103;-51
2021/07/28 13:44:30;;;;;;;6.97;4.95;;;;;;;;;;4994188;28;20122;-48
2021/07/28 13:47:03;;;;;;;5.97;4.28;;;;;;;;;;4993768;28;20126;-50
2021/07/28 13:49:30;;;;;;;6.93;4.50;;;;;;;;;;4993594;28;20578;-52
2021/07/28 13:51:57;;;;;;;6.40;4.53;;;;;;;;;;4994388;28;20418;-48
2021/07/28 13:54:24;;;;;;;6.50;4.25;;;;;;;;;;4993788;28;20249;-51
2021/07/28 13:57:07;;;;;;;5.93;4.60;;;;;;;;;;4994031;28;20038;-49
2021/07/28 13:59:33;;;;;;;6.53;4.78;;;;;;;;;;4992853;28;20069;-49
2021/07/28 14:02:00;;;;;;;6.47;4.68;;;;;;;;;;4993910;28;20038;-48
2021/07/28 14:04:28;;;;;;;5.57;4.55;;;;;;;;;;4994036;28;20046;-50
2021/07/28 14:06:56;;;;;;;5.70;4.35;;;;;;;;;;4993339;28;20078;-51
2021/07/28 14:09:22;;;;;;;5.90;4.50;;;;;;;;;;4993131;28;20050;-49
2021/07/28 14:11:51;;;;;;;6.68;4.68;;;;;;;;;;4993700;28;20514;-48
2021/07/28 14:14:18;;;;;;;7.75;4.82;;;;;;;;;;4993359;28;20523;-52
2021/07/28 14:16:45;;;;;;;8.05;5.32;;;;;;;;;;4993226;28;20042;-47
2021/07/28 14:19:17;;;;;;;5.88;4.20;;;;;;;;;;4992956;28;20065;-49
2021/07/28 14:21:45;;;;;;;6.32;4.82;;;;;;;;;;4993501;28;20046;-49
2021/07/28 14:24:11;;;;;;;8.50;4.53;;;;;;;;;;4992658;28;20492;-49
2021/07/28 14:26:38;;;;;;;8.23;4.75;;;;;;;;;;4993327;28;20125;-51
2021/07/28 14:29:05;;;;;;;7.30;4.53;;;;;;;;;;4992026;28;20254;-52
2021/07/28 14:31:32;;;;;;;5.35;4.45;;;;;;;;;;5008267;28;20158;-51
2021/07/28 14:33:59;;;;;;;6.90;4.90;;;;;;;;;;4993225;28;20413;-49
2021/07/28 14:36:26;;;;;;;10.30;4.65;;;;;;;;;;4993129;28;20054;-49
2021/07/28 14:38:53;;;;;;;5.68;4.63;;;;;;;;;;5007075;28;20038;-48
2021/07/28 14:41:21;;;;;;;6.45;5.00;;;;;;;;;;4993148;28;20046;-47
2021/07/28 14:43:49;;;;;;;6.82;4.75;;;;;;;;;;4991713;28;20073;-47
2021/07/28 14:46:34;;;;;;;5.63;3.97;;;;;;;;;;4992234;28;20523;-48
2021/07/28 14:49:04;;;;;;;6.18;4.50;;;;;;;;;;4991720;28;20096;-50